sensor_id;sensor_type;location;lat;lon;timestamp;temperature;humidity
50570;DHT22;36525;49.398;7.614;2023-08-07T00:02:18;11.60;99.90
50570;DHT22;36525;49.398;7.614;2023-08-07T00:04:46;11.60;99.90
50570;DHT22;36525;49.398;7.614;2023-08-07T00:07:13;11.50;99.90
50570;DHT22;36525;49.398;7.614;2023-08-07T00:09:40;11.50;99.90
50570;DHT22;36525;49.398;7.614;2023-08-07T00:12:08;11.50;99.90
50570;DHT22;36525;49.398;7.614;2023-08-07T00:14:35;11.50;99.90
50570;DHT22;36525;49.398;7.614;2023-08-07T00:17:02;11.40;99.90
50570;DHT22;36525;49.398;7.614;2023-08-07T00:19:31;11.40;99.90
50570;DHT22;36525;49.398;7.614;2023-08-07T00:21:58;11.50;99.90
50570;DHT22;36525;49.398;7.614;2023-08-07T00:24:25;11.50;99.90
50570;DHT22;36525;49.398;7.614;2023-08-07T00:27:00;11.40;99.90
50570;DHT22;36525;49.398;7.614;2023-08-07T00:29:27;11.50;99.90
50570;DHT22;36525;49.398;7.614;2023-08-07T00:31:54;11.40;99.90
50570;DHT22;36525;49.398;7.614;2023-08-07T00:34:21;11.40;99.90
50570;DHT22;36525;49.398;7.614;2023-08-07T00:36:48;11.40;99.90
50570;DHT22;36525;49.398;7.614;2023-08-07T00:39:15;11.40;99.90
50570;DHT22;36525;49.398;7.614;2023-08-07T00:41:42;11.40;99.90
50570;DHT22;36525;49.398;7.614;2023-08-07T00:44:09;11.30;99.90
50570;DHT22;36525;49.398;7.614;2023-08-07T00:46:36;11.40;99.90
50570;DHT22;36525;49.398;7.614;2023-08-07T00:49:07;11.40;99.90
50570;DHT22;36525;49.398;7.614;2023-08-07T00:51:37;11.40;99.90
50570;DHT22;36525;49.398;7.614;2023-08-07T00:54:05;11.40;99.90
50570;DHT22;36525;49.398;7.614;2023-08-07T00:56:32;11.40;99.90
50570;DHT22;36525;49.398;7.614;2023-08-07T00:59:01;11.30;99.90
50570;DHT22;36525;49.398;7.614;2023-08-07T01:01:28;11.30;99.90
50570;DHT22;36525;49.398;7.614;2023-08-07T01:03:56;11.30;99.90
50570;DHT22;36525;49.398;7.614;2023-08-07T01:06:23;11.30;99.90
50570;DHT22;36525;49.398;7.614;2023-08-07T01:08:50;11.30;99.90
50570;DHT22;36525;49.398;7.614;2023-08-07T01:11:42;11.30;99.90
50570;DHT22;36525;49.398;7.614;2023-08-07T01:17:00;11.30;99.90
50570;DHT22;36525;49.398;7.614;2023-08-07T01:19:31;11.30;99.90
50570;DHT22;36525;49.398;7.614;2023-08-07T01:24:42;11.40;99.90
50570;DHT22;36525;49.398;7.614;2023-08-07T01:35:43;11.30;99.90
50570;DHT22;36525;49.398;7.614;2023-08-07T01:38:13;11.20;99.90
50570;DHT22;36525;49.398;7.614;2023-08-07T01:40:43;11.20;99.90
50570;DHT22;36525;49.398;7.614;2023-08-07T01:43:11;11.20;99.90
50570;DHT22;36525;49.398;7.614;2023-08-07T01:45:38;11.10;99.90
50570;DHT22;36525;49.398;7.614;2023-08-07T01:48:05;11.00;99.90
50570;DHT22;36525;49.398;7.614;2023-08-07T01:50:32;11.00;99.90
50570;DHT22;36525;49.398;7.614;2023-08-07T01:53:00;11.00;99.90
50570;DHT22;36525;49.398;7.614;2023-08-07T01:55:29;11.00;99.90
50570;DHT22;36525;49.398;7.614;2023-08-07T01:57:56;11.00;99.90
50570;DHT22;36525;49.398;7.614;2023-08-07T02:00:23;11.00;99.90
50570;DHT22;36525;49.398;7.614;2023-08-07T02:02:50;10.90;99.90
50570;DHT22;36525;49.398;7.614;2023-08-07T02:05:17;11.00;99.90
50570;DHT22;36525;49.398;7.614;2023-08-07T02:07:45;11.00;99.90
50570;DHT22;36525;49.398;7.614;2023-08-07T02:10:12;10.90;99.90
50570;DHT22;36525;49.398;7.614;2023-08-07T02:12:39;10.90;99.90
50570;DHT22;36525;49.398;7.614;2023-08-07T02:15:06;10.90;99.90
50570;DHT22;36525;49.398;7.614;2023-08-07T02:17:34;10.90;99.90
50570;DHT22;36525;49.398;7.614;2023-08-07T02:20:05;10.90;99.90
50570;DHT22;36525;49.398;7.614;2023-08-07T02:22:32;10.90;99.90
50570;DHT22;36525;49.398;7.614;2023-08-07T02:24:59;10.90;99.90
50570;DHT22;36525;49.398;7.614;2023-08-07T02:27:27;10.90;99.90
50570;DHT22;36525;49.398;7.614;2023-08-07T02:29:54;10.90;99.90
50570;DHT22;36525;49.398;7.614;2023-08-07T02:32:21;10.90;99.90
50570;DHT22;36525;49.398;7.614;2023-08-07T02:34:48;11.00;99.90
50570;DHT22;36525;49.398;7.614;2023-08-07T02:37:15;11.00;99.90
50570;DHT22;36525;49.398;7.614;2023-08-07T02:39:43;11.00;99.90
50570;DHT22;36525;49.398;7.614;2023-08-07T02:42:10;11.00;99.90
50570;DHT22;36525;49.398;7.614;2023-08-07T02:44:38;11.00;99.90
50570;DHT22;36525;49.398;7.614;2023-08-07T02:47:05;11.00;99.90
50570;DHT22;36525;49.398;7.614;2023-08-07T02:49:32;10.90;99.90
50570;DHT22;36525;49.398;7.614;2023-08-07T02:51:59;11.00;99.90
50570;DHT22;36525;49.398;7.614;2023-08-07T02:54:26;11.00;99.90
50570;DHT22;36525;49.398;7.614;2023-08-07T02:56:53;11.00;99.90
50570;DHT22;36525;49.398;7.614;2023-08-07T02:59:21;11.00;99.90
50570;DHT22;36525;49.398;7.614;2023-08-07T03:01:49;11.00;99.90
50570;DHT22;36525;49.398;7.614;2023-08-07T03:04:16;11.00;99.90
50570;DHT22;36525;49.398;7.614;2023-08-07T03:06:44;11.00;99.90
50570;DHT22;36525;49.398;7.614;2023-08-07T03:09:11;10.90;99.90
50570;DHT22;36525;49.398;7.614;2023-08-07T03:11:37;11.00;99.90
50570;DHT22;36525;49.398;7.614;2023-08-07T03:14:05;11.00;99.90
50570;DHT22;36525;49.398;7.614;2023-08-07T03:16:32;11.00;99.90
50570;DHT22;36525;49.398;7.614;2023-08-07T03:18:59;11.00;99.90
50570;DHT22;36525;49.398;7.614;2023-08-07T03:21:26;10.90;99.90
50570;DHT22;36525;49.398;7.614;2023-08-07T03:23:53;11.00;99.90
50570;DHT22;36525;49.398;7.614;2023-08-07T03:26:20;11.00;99.90
50570;DHT22;36525;49.398;7.614;2023-08-07T03:28:47;11.00;99.90
50570;DHT22;36525;49.398;7.614;2023-08-07T03:31:22;11.00;99.90
50570;DHT22;36525;49.398;7.614;2023-08-07T03:33:49;11.00;99.90
50570;DHT22;36525;49.398;7.614;2023-08-07T03:36:16;11.00;99.90
50570;DHT22;36525;49.398;7.614;2023-08-07T03:38:43;11.00;99.90
50570;DHT22;36525;49.398;7.614;2023-08-07T03:41:10;11.00;99.90
50570;DHT22;36525;49.398;7.614;2023-08-07T03:43:37;11.00;99.90
50570;DHT22;36525;49.398;7.614;2023-08-07T03:46:04;11.00;99.90
50570;DHT22;36525;49.398;7.614;2023-08-07T03:48:32;11.00;99.90
50570;DHT22;36525;49.398;7.614;2023-08-07T03:51:03;11.00;99.90
50570;DHT22;36525;49.398;7.614;2023-08-07T03:53:35;11.00;99.90
50570;DHT22;36525;49.398;7.614;2023-08-07T03:56:02;11.00;99.90
50570;DHT22;36525;49.398;7.614;2023-08-07T03:58:29;11.00;99.90
50570;DHT22;36525;49.398;7.614;2023-08-07T04:00:56;11.00;99.90
50570;DHT22;36525;49.398;7.614;2023-08-07T04:03:24;11.00;99.90
50570;DHT22;36525;49.398;7.614;2023-08-07T04:05:57;11.00;99.90
50570;DHT22;36525;49.398;7.614;2023-08-07T04:08:24;11.00;99.90
50570;DHT22;36525;49.398;7.614;2023-08-07T04:11:04;11.00;99.90
50570;DHT22;36525;49.398;7.614;2023-08-07T04:13:32;11.00;99.90
50570;DHT22;36525;49.398;7.614;2023-08-07T04:15:59;11.00;99.90
50570;DHT22;36525;49.398;7.614;2023-08-07T04:18:28;11.00;99.90
50570;DHT22;36525;49.398;7.614;2023-08-07T04:20:56;11.10;99.90
50570;DHT22;36525;49.398;7.614;2023-08-07T04:23:24;11.00;99.90
50570;DHT22;36525;49.398;7.614;2023-08-07T04:25:52;11.00;99.90
50570;DHT22;36525;49.398;7.614;2023-08-07T04:28:20;11.00;99.90
50570;DHT22;36525;49.398;7.614;2023-08-07T04:30:51;11.00;99.90
50570;DHT22;36525;49.398;7.614;2023-08-07T04:33:20;11.00;99.90
50570;DHT22;36525;49.398;7.614;2023-08-07T04:35:48;11.00;99.90
50570;DHT22;36525;49.398;7.614;2023-08-07T04:38:16;11.00;99.90
50570;DHT22;36525;49.398;7.614;2023-08-07T04:40:47;11.00;99.90
50570;DHT22;36525;49.398;7.614;2023-08-07T04:43:19;11.00;99.90
50570;DHT22;36525;49.398;7.614;2023-08-07T04:45:50;11.00;99.90
50570;DHT22;36525;49.398;7.614;2023-08-07T04:48:17;11.00;99.90
50570;DHT22;36525;49.398;7.614;2023-08-07T04:50:45;11.10;99.90
50570;DHT22;36525;49.398;7.614;2023-08-07T04:53:12;11.10;99.90
50570;DHT22;36525;49.398;7.614;2023-08-07T04:55:39;11.10;99.90
50570;DHT22;36525;49.398;7.614;2023-08-07T04:58:06;11.10;99.90
50570;DHT22;36525;49.398;7.614;2023-08-07T05:00:33;11.20;99.90
50570;DHT22;36525;49.398;7.614;2023-08-07T05:03:00;11.30;99.90
50570;DHT22;36525;49.398;7.614;2023-08-07T05:05:28;11.30;99.90
50570;DHT22;36525;49.398;7.614;2023-08-07T05:07:57;11.30;99.90
50570;DHT22;36525;49.398;7.614;2023-08-07T05:10:25;11.20;99.90
50570;DHT22;36525;49.398;7.614;2023-08-07T05:12:55;11.20;99.90
50570;DHT22;36525;49.398;7.614;2023-08-07T05:15:23;11.30;99.90
50570;DHT22;36525;49.398;7.614;2023-08-07T05:17:51;11.30;99.90
50570;DHT22;36525;49.398;7.614;2023-08-07T05:20:19;11.20;99.90
50570;DHT22;36525;49.398;7.614;2023-08-07T05:22:46;11.10;99.90
50570;DHT22;36525;49.398;7.614;2023-08-07T05:25:13;11.10;99.90
50570;DHT22;36525;49.398;7.614;2023-08-07T05:27:47;11.20;99.90
50570;DHT22;36525;49.398;7.614;2023-08-07T05:30:14;11.10;99.90
50570;DHT22;36525;49.398;7.614;2023-08-07T05:32:41;11.10;99.90
50570;DHT22;36525;49.398;7.614;2023-08-07T05:35:09;11.00;99.90
50570;DHT22;36525;49.398;7.614;2023-08-07T06:21:04;11.60;99.90
50570;DHT22;36525;49.398;7.614;2023-08-07T06:23:34;12.20;99.90
50570;DHT22;36525;49.398;7.614;2023-08-07T06:26:01;12.20;99.90
50570;DHT22;36525;49.398;7.614;2023-08-07T06:28:32;12.10;99.90
50570;DHT22;36525;49.398;7.614;2023-08-07T06:31:07;12.10;99.90
50570;DHT22;36525;49.398;7.614;2023-08-07T06:33:35;12.10;99.90
50570;DHT22;36525;49.398;7.614;2023-08-07T06:36:03;12.00;99.90
50570;DHT22;36525;49.398;7.614;2023-08-07T06:38:31;12.10;99.90
50570;DHT22;36525;49.398;7.614;2023-08-07T06:40:58;12.10;99.90
50570;DHT22;36525;49.398;7.614;2023-08-07T06:43:26;12.10;99.90
50570;DHT22;36525;49.398;7.614;2023-08-07T06:45:54;12.20;99.90
50570;DHT22;36525;49.398;7.614;2023-08-07T06:48:22;12.20;99.90
50570;DHT22;36525;49.398;7.614;2023-08-07T06:50:50;12.20;99.90
50570;DHT22;36525;49.398;7.614;2023-08-07T06:53:18;12.10;99.90
50570;DHT22;36525;49.398;7.614;2023-08-07T06:55:46;12.20;99.90
50570;DHT22;36525;49.398;7.614;2023-08-07T06:58:14;12.40;99.90
50570;DHT22;36525;49.398;7.614;2023-08-07T07:00:41;12.40;99.90
50570;DHT22;36525;49.398;7.614;2023-08-07T07:03:08;12.40;99.90
50570;DHT22;36525;49.398;7.614;2023-08-07T07:05:37;12.50;99.90
50570;DHT22;36525;49.398;7.614;2023-08-07T07:08:04;12.50;99.90
50570;DHT22;36525;49.398;7.614;2023-08-07T07:10:32;12.50;99.90
50570;DHT22;36525;49.398;7.614;2023-08-07T07:12:59;12.50;99.90
50570;DHT22;36525;49.398;7.614;2023-08-07T07:15:26;12.60;99.90
50570;DHT22;36525;49.398;7.614;2023-08-07T07:17:54;12.60;99.90
50570;DHT22;36525;49.398;7.614;2023-08-07T07:20:21;12.80;99.90
50570;DHT22;36525;49.398;7.614;2023-08-07T07:22:49;13.00;99.90
50570;DHT22;36525;49.398;7.614;2023-08-07T07:25:16;13.20;99.90
50570;DHT22;36525;49.398;7.614;2023-08-07T07:27:43;13.30;99.90
50570;DHT22;36525;49.398;7.614;2023-08-07T07:30:11;13.40;99.90
50570;DHT22;36525;49.398;7.614;2023-08-07T07:32:38;13.40;99.90
50570;DHT22;36525;49.398;7.614;2023-08-07T07:35:05;13.70;99.90
50570;DHT22;36525;49.398;7.614;2023-08-07T07:37:33;13.60;99.90
50570;DHT22;36525;49.398;7.614;2023-08-07T07:40:01;13.70;99.90
50570;DHT22;36525;49.398;7.614;2023-08-07T07:42:28;13.80;99.90
50570;DHT22;36525;49.398;7.614;2023-08-07T07:44:55;13.80;99.90
50570;DHT22;36525;49.398;7.614;2023-08-07T07:47:22;13.60;99.90
50570;DHT22;36525;49.398;7.614;2023-08-07T07:50:06;13.80;99.90
50570;DHT22;36525;49.398;7.614;2023-08-07T07:52:35;13.90;99.90
50570;DHT22;36525;49.398;7.614;2023-08-07T07:55:03;13.90;99.90
50570;DHT22;36525;49.398;7.614;2023-08-07T07:57:31;14.10;99.90
50570;DHT22;36525;49.398;7.614;2023-08-07T07:59:59;14.20;99.90
50570;DHT22;36525;49.398;7.614;2023-08-07T08:02:27;14.20;99.90
50570;DHT22;36525;49.398;7.614;2023-08-07T08:04:57;14.30;99.90
50570;DHT22;36525;49.398;7.614;2023-08-07T08:07:24;14.30;99.90
50570;DHT22;36525;49.398;7.614;2023-08-07T08:09:52;14.50;99.90
50570;DHT22;36525;49.398;7.614;2023-08-07T08:12:21;14.60;99.90
50570;DHT22;36525;49.398;7.614;2023-08-07T08:14:48;14.70;99.90
50570;DHT22;36525;49.398;7.614;2023-08-07T08:17:23;14.60;99.90
50570;DHT22;36525;49.398;7.614;2023-08-07T08:19:50;14.50;99.90
50570;DHT22;36525;49.398;7.614;2023-08-07T08:22:18;14.40;99.90
50570;DHT22;36525;49.398;7.614;2023-08-07T08:24:45;14.60;99.90
50570;DHT22;36525;49.398;7.614;2023-08-07T08:27:14;14.50;99.90
50570;DHT22;36525;49.398;7.614;2023-08-07T08:29:42;14.40;99.90
50570;DHT22;36525;49.398;7.614;2023-08-07T08:32:09;14.60;99.90
50570;DHT22;36525;49.398;7.614;2023-08-07T08:34:36;14.90;99.90
50570;DHT22;36525;49.398;7.614;2023-08-07T08:37:04;14.70;99.90
50570;DHT22;36525;49.398;7.614;2023-08-07T08:39:35;14.50;99.90
50570;DHT22;36525;49.398;7.614;2023-08-07T08:42:02;14.30;99.90
50570;DHT22;36525;49.398;7.614;2023-08-07T08:44:31;14.50;99.90
50570;DHT22;36525;49.398;7.614;2023-08-07T08:46:59;14.30;99.90
50570;DHT22;36525;49.398;7.614;2023-08-07T08:49:37;14.30;99.90
50570;DHT22;36525;49.398;7.614;2023-08-07T08:52:10;14.70;99.90
50570;DHT22;36525;49.398;7.614;2023-08-07T08:54:42;14.90;99.90
50570;DHT22;36525;49.398;7.614;2023-08-07T08:57:11;15.40;99.90
50570;DHT22;36525;49.398;7.614;2023-08-07T08:59:44;16.20;99.90
50570;DHT22;36525;49.398;7.614;2023-08-07T09:02:11;17.00;99.90
50570;DHT22;36525;49.398;7.614;2023-08-07T09:04:39;16.70;99.90
50570;DHT22;36525;49.398;7.614;2023-08-07T09:07:09;16.10;99.90
50570;DHT22;36525;49.398;7.614;2023-08-07T09:09:37;16.60;99.90
50570;DHT22;36525;49.398;7.614;2023-08-07T09:12:07;17.10;99.90
50570;DHT22;36525;49.398;7.614;2023-08-07T09:14:37;17.50;99.90
50570;DHT22;36525;49.398;7.614;2023-08-07T09:17:07;17.20;99.90
50570;DHT22;36525;49.398;7.614;2023-08-07T09:19:34;17.30;99.90
50570;DHT22;36525;49.398;7.614;2023-08-07T09:22:02;17.10;99.90
50570;DHT22;36525;49.398;7.614;2023-08-07T09:24:30;16.70;99.90
50570;DHT22;36525;49.398;7.614;2023-08-07T09:26:58;17.00;99.90
50570;DHT22;36525;49.398;7.614;2023-08-07T09:29:26;16.70;99.90
50570;DHT22;36525;49.398;7.614;2023-08-07T09:31:54;16.10;99.90
50570;DHT22;36525;49.398;7.614;2023-08-07T09:34:21;15.90;99.90
50570;DHT22;36525;49.398;7.614;2023-08-07T09:36:49;15.80;99.90
50570;DHT22;36525;49.398;7.614;2023-08-07T09:39:16;16.00;99.90
50570;DHT22;36525;49.398;7.614;2023-08-07T09:41:51;15.70;99.90
50570;DHT22;36525;49.398;7.614;2023-08-07T09:44:19;15.60;99.90
50570;DHT22;36525;49.398;7.614;2023-08-07T09:46:46;15.70;99.90
50570;DHT22;36525;49.398;7.614;2023-08-07T09:49:13;16.00;99.90
50570;DHT22;36525;49.398;7.614;2023-08-07T09:51:43;16.00;99.90
50570;DHT22;36525;49.398;7.614;2023-08-07T09:54:11;15.90;99.90
50570;DHT22;36525;49.398;7.614;2023-08-07T09:56:46;15.80;99.90
50570;DHT22;36525;49.398;7.614;2023-08-07T09:59:14;15.70;99.90
50570;DHT22;36525;49.398;7.614;2023-08-07T10:01:42;16.30;99.90
50570;DHT22;36525;49.398;7.614;2023-08-07T10:04:11;16.00;99.90
50570;DHT22;36525;49.398;7.614;2023-08-07T10:06:44;16.40;99.90
50570;DHT22;36525;49.398;7.614;2023-08-07T10:09:13;16.80;99.90
50570;DHT22;36525;49.398;7.614;2023-08-07T10:11:41;17.20;99.90
50570;DHT22;36525;49.398;7.614;2023-08-07T10:14:09;17.00;99.90
50570;DHT22;36525;49.398;7.614;2023-08-07T10:16:37;17.30;99.90
50570;DHT22;36525;49.398;7.614;2023-08-07T10:19:07;17.90;99.90
50570;DHT22;36525;49.398;7.614;2023-08-07T10:21:36;18.20;99.90
50570;DHT22;36525;49.398;7.614;2023-08-07T10:24:07;18.60;99.90
50570;DHT22;36525;49.398;7.614;2023-08-07T10:26:41;18.20;99.90
50570;DHT22;36525;49.398;7.614;2023-08-07T10:29:13;17.10;99.90
50570;DHT22;36525;49.398;7.614;2023-08-07T10:31:42;16.60;99.90
50570;DHT22;36525;49.398;7.614;2023-08-07T10:34:11;16.50;99.90
50570;DHT22;36525;49.398;7.614;2023-08-07T10:36:39;16.50;99.90
50570;DHT22;36525;49.398;7.614;2023-08-07T10:39:09;17.00;99.90
50570;DHT22;36525;49.398;7.614;2023-08-07T10:41:42;18.00;99.90
50570;DHT22;36525;49.398;7.614;2023-08-07T10:46:55;20.00;99.90
50570;DHT22;36525;49.398;7.614;2023-08-07T10:49:37;19.80;99.90
50570;DHT22;36525;49.398;7.614;2023-08-07T10:52:16;19.10;99.90
50570;DHT22;36525;49.398;7.614;2023-08-07T10:54:49;19.10;99.90
50570;DHT22;36525;49.398;7.614;2023-08-07T10:57:17;18.40;99.90
50570;DHT22;36525;49.398;7.614;2023-08-07T11:00:03;18.00;99.90
50570;DHT22;36525;49.398;7.614;2023-08-07T11:02:37;18.20;99.90
50570;DHT22;36525;49.398;7.614;2023-08-07T11:05:08;18.60;99.90
50570;DHT22;36525;49.398;7.614;2023-08-07T11:07:40;18.70;99.90
50570;DHT22;36525;49.398;7.614;2023-08-07T11:10:08;19.10;99.90
50570;DHT22;36525;49.398;7.614;2023-08-07T11:12:37;19.30;99.90
50570;DHT22;36525;49.398;7.614;2023-08-07T11:15:04;19.60;99.90
50570;DHT22;36525;49.398;7.614;2023-08-07T11:17:32;19.60;99.90
50570;DHT22;36525;49.398;7.614;2023-08-07T11:19:59;19.90;99.90
50570;DHT22;36525;49.398;7.614;2023-08-07T11:22:27;20.30;99.90
50570;DHT22;36525;49.398;7.614;2023-08-07T11:24:54;20.20;99.90
50570;DHT22;36525;49.398;7.614;2023-08-07T11:27:22;20.10;99.90
50570;DHT22;36525;49.398;7.614;2023-08-07T11:29:50;20.30;99.90
50570;DHT22;36525;49.398;7.614;2023-08-07T11:32:19;20.30;99.90
50570;DHT22;36525;49.398;7.614;2023-08-07T11:34:50;19.40;99.90
50570;DHT22;36525;49.398;7.614;2023-08-07T11:37:19;18.50;99.90
50570;DHT22;36525;49.398;7.614;2023-08-07T11:39:46;18.40;99.90
50570;DHT22;36525;49.398;7.614;2023-08-07T11:42:13;18.70;99.90
50570;DHT22;36525;49.398;7.614;2023-08-07T11:44:41;18.60;99.90
50570;DHT22;36525;49.398;7.614;2023-08-07T11:47:10;18.70;99.90
50570;DHT22;36525;49.398;7.614;2023-08-07T11:49:37;18.60;99.90
50570;DHT22;36525;49.398;7.614;2023-08-07T11:52:05;18.00;99.90
50570;DHT22;36525;49.398;7.614;2023-08-07T11:54:33;17.90;99.90
50570;DHT22;36525;49.398;7.614;2023-08-07T11:57:03;18.20;99.90
50570;DHT22;36525;49.398;7.614;2023-08-07T11:59:30;18.00;99.90
50570;DHT22;36525;49.398;7.614;2023-08-07T12:01:57;17.90;99.90
50570;DHT22;36525;49.398;7.614;2023-08-07T12:04:24;17.60;99.90
50570;DHT22;36525;49.398;7.614;2023-08-07T12:06:55;17.60;99.90
50570;DHT22;36525;49.398;7.614;2023-08-07T12:09:25;17.80;99.90
50570;DHT22;36525;49.398;7.614;2023-08-07T12:12:00;18.20;99.90
50570;DHT22;36525;49.398;7.614;2023-08-07T12:14:30;19.10;99.90
50570;DHT22;36525;49.398;7.614;2023-08-07T12:16:57;19.80;99.90
50570;DHT22;36525;49.398;7.614;2023-08-07T12:19:35;20.00;99.90
50570;DHT22;36525;49.398;7.614;2023-08-07T12:22:10;19.20;99.90
50570;DHT22;36525;49.398;7.614;2023-08-07T12:24:38;19.00;99.90
50570;DHT22;36525;49.398;7.614;2023-08-07T12:27:05;18.90;99.90
50570;DHT22;36525;49.398;7.614;2023-08-07T12:29:33;18.60;99.90
50570;DHT22;36525;49.398;7.614;2023-08-07T12:32:00;18.60;99.90
50570;DHT22;36525;49.398;7.614;2023-08-07T12:34:29;18.80;99.90
50570;DHT22;36525;49.398;7.614;2023-08-07T12:36:59;19.50;99.90
50570;DHT22;36525;49.398;7.614;2023-08-07T12:39:26;20.30;99.90
50570;DHT22;36525;49.398;7.614;2023-08-07T12:41:56;20.60;99.90
50570;DHT22;36525;49.398;7.614;2023-08-07T12:44:27;20.50;99.90
50570;DHT22;36525;49.398;7.614;2023-08-07T12:46:55;20.90;99.90
50570;DHT22;36525;49.398;7.614;2023-08-07T12:49:23;20.60;99.80
50570;DHT22;36525;49.398;7.614;2023-08-07T12:51:51;21.00;99.30
50570;DHT22;36525;49.398;7.614;2023-08-07T12:54:19;21.60;99.90
50570;DHT22;36525;49.398;7.614;2023-08-07T12:56:47;21.00;99.90
50570;DHT22;36525;49.398;7.614;2023-08-07T12:59:14;20.30;99.90
50570;DHT22;36525;49.398;7.614;2023-08-07T13:01:41;19.30;99.90
50570;DHT22;36525;49.398;7.614;2023-08-07T13:04:08;19.20;99.90
50570;DHT22;36525;49.398;7.614;2023-08-07T13:06:35;19.20;99.90
50570;DHT22;36525;49.398;7.614;2023-08-07T13:09:03;19.60;99.90
50570;DHT22;36525;49.398;7.614;2023-08-07T13:11:30;20.30;99.90
50570;DHT22;36525;49.398;7.614;2023-08-07T13:13:57;20.70;99.90
50570;DHT22;36525;49.398;7.614;2023-08-07T13:16:24;21.20;99.90
50570;DHT22;36525;49.398;7.614;2023-08-07T13:18:51;20.80;99.90
50570;DHT22;36525;49.398;7.614;2023-08-07T13:21:18;20.90;99.90
50570;DHT22;36525;49.398;7.614;2023-08-07T13:23:45;20.70;99.90
50570;DHT22;36525;49.398;7.614;2023-08-07T13:26:12;21.50;99.90
50570;DHT22;36525;49.398;7.614;2023-08-07T13:31:07;22.00;99.40
50570;DHT22;36525;49.398;7.614;2023-08-07T13:33:35;20.60;99.00
50570;DHT22;36525;49.398;7.614;2023-08-07T13:36:02;20.00;99.90
50570;DHT22;36525;49.398;7.614;2023-08-07T13:38:31;19.50;99.90
50570;DHT22;36525;49.398;7.614;2023-08-07T13:40:58;19.20;99.90
50570;DHT22;36525;49.398;7.614;2023-08-07T13:43:25;18.50;99.90
50570;DHT22;36525;49.398;7.614;2023-08-07T13:45:52;18.60;99.90
50570;DHT22;36525;49.398;7.614;2023-08-07T13:48:19;18.90;99.90
50570;DHT22;36525;49.398;7.614;2023-08-07T13:50:47;19.90;99.90
50570;DHT22;36525;49.398;7.614;2023-08-07T13:53:15;21.10;99.90
50570;DHT22;36525;49.398;7.614;2023-08-07T13:55:43;22.30;99.90
50570;DHT22;36525;49.398;7.614;2023-08-07T13:58:10;22.10;98.70
50570;DHT22;36525;49.398;7.614;2023-08-07T14:00:37;22.00;99.60
50570;DHT22;36525;49.398;7.614;2023-08-07T14:03:08;21.60;99.00
50570;DHT22;36525;49.398;7.614;2023-08-07T14:05:39;21.40;99.70
50570;DHT22;36525;49.398;7.614;2023-08-07T14:08:06;20.90;99.00
50570;DHT22;36525;49.398;7.614;2023-08-07T14:10:34;21.70;99.90
50570;DHT22;36525;49.398;7.614;2023-08-07T14:13:03;22.70;98.90
50570;DHT22;36525;49.398;7.614;2023-08-07T14:15:30;23.50;97.10
50570;DHT22;36525;49.398;7.614;2023-08-07T14:17:57;23.00;96.10
50570;DHT22;36525;49.398;7.614;2023-08-07T14:20:25;23.00;96.60
50570;DHT22;36525;49.398;7.614;2023-08-07T14:22:53;22.80;97.20
50570;DHT22;36525;49.398;7.614;2023-08-07T14:25:34;22.80;96.90
50570;DHT22;36525;49.398;7.614;2023-08-07T14:28:01;21.20;97.40
50570;DHT22;36525;49.398;7.614;2023-08-07T14:30:28;20.60;98.50
50570;DHT22;36525;49.398;7.614;2023-08-07T14:35:23;20.30;99.50
50570;DHT22;36525;49.398;7.614;2023-08-07T14:37:51;21.20;99.50
50570;DHT22;36525;49.398;7.614;2023-08-07T14:40:18;21.70;98.20
50570;DHT22;36525;49.398;7.614;2023-08-07T14:42:46;22.80;97.70
50570;DHT22;36525;49.398;7.614;2023-08-07T14:45:13;22.40;96.60
50570;DHT22;36525;49.398;7.614;2023-08-07T14:47:42;21.70;97.10
50570;DHT22;36525;49.398;7.614;2023-08-07T14:50:09;21.00;97.60
50570;DHT22;36525;49.398;7.614;2023-08-07T14:52:36;20.80;98.30
50570;DHT22;36525;49.398;7.614;2023-08-07T14:55:05;21.50;98.00
50570;DHT22;36525;49.398;7.614;2023-08-07T14:57:34;22.10;96.40
50570;DHT22;36525;49.398;7.614;2023-08-07T15:00:01;22.70;96.60
50570;DHT22;36525;49.398;7.614;2023-08-07T15:02:29;22.90;94.00
50570;DHT22;36525;49.398;7.614;2023-08-07T15:04:56;22.80;94.00
50570;DHT22;36525;49.398;7.614;2023-08-07T15:07:23;23.00;94.10
50570;DHT22;36525;49.398;7.614;2023-08-07T15:09:50;23.40;93.20
50570;DHT22;36525;49.398;7.614;2023-08-07T15:12:17;23.70;94.10
50570;DHT22;36525;49.398;7.614;2023-08-07T15:14:45;23.90;93.10
50570;DHT22;36525;49.398;7.614;2023-08-07T15:17:12;23.50;93.80
50570;DHT22;36525;49.398;7.614;2023-08-07T15:19:42;23.50;94.00
50570;DHT22;36525;49.398;7.614;2023-08-07T15:22:09;22.70;93.50
50570;DHT22;36525;49.398;7.614;2023-08-07T15:24:36;21.90;94.20
50570;DHT22;36525;49.398;7.614;2023-08-07T15:27:03;21.70;93.90
50570;DHT22;36525;49.398;7.614;2023-08-07T15:29:30;21.90;93.50
50570;DHT22;36525;49.398;7.614;2023-08-07T15:31:58;21.40;93.40
50570;DHT22;36525;49.398;7.614;2023-08-07T15:34:26;21.90;93.90
50570;DHT22;36525;49.398;7.614;2023-08-07T15:36:56;22.70;93.30
50570;DHT22;36525;49.398;7.614;2023-08-07T15:39:25;23.70;92.90
50570;DHT22;36525;49.398;7.614;2023-08-07T15:41:52;24.40;90.80
50570;DHT22;36525;49.398;7.614;2023-08-07T15:44:19;24.80;90.50
50570;DHT22;36525;49.398;7.614;2023-08-07T15:49:14;25.70;88.00
50570;DHT22;36525;49.398;7.614;2023-08-07T15:51:41;24.80;88.00
50570;DHT22;36525;49.398;7.614;2023-08-07T15:54:11;24.40;88.50
50570;DHT22;36525;49.398;7.614;2023-08-07T15:56:38;23.70;90.10
50570;DHT22;36525;49.398;7.614;2023-08-07T15:59:05;23.50;90.10
50570;DHT22;36525;49.398;7.614;2023-08-07T16:01:32;23.80;90.10
50570;DHT22;36525;49.398;7.614;2023-08-07T16:03:59;24.60;89.70
50570;DHT22;36525;49.398;7.614;2023-08-07T16:06:27;24.40;89.40
50570;DHT22;36525;49.398;7.614;2023-08-07T16:08:58;23.20;90.90
50570;DHT22;36525;49.398;7.614;2023-08-07T16:11:25;22.70;91.10
50570;DHT22;36525;49.398;7.614;2023-08-07T16:13:52;22.20;92.10
50570;DHT22;36525;49.398;7.614;2023-08-07T16:16:20;22.00;93.50
50570;DHT22;36525;49.398;7.614;2023-08-07T16:18:47;22.20;92.40
50570;DHT22;36525;49.398;7.614;2023-08-07T16:21:15;22.70;93.60
50570;DHT22;36525;49.398;7.614;2023-08-07T16:23:42;23.20;93.20
50570;DHT22;36525;49.398;7.614;2023-08-07T16:26:10;23.20;92.10
50570;DHT22;36525;49.398;7.614;2023-08-07T16:28:37;22.60;92.20
50570;DHT22;36525;49.398;7.614;2023-08-07T16:31:04;22.70;92.80
50570;DHT22;36525;49.398;7.614;2023-08-07T16:33:36;22.50;92.20
50570;DHT22;36525;49.398;7.614;2023-08-07T16:36:05;22.90;92.80
50570;DHT22;36525;49.398;7.614;2023-08-07T16:38:32;23.20;92.80
50570;DHT22;36525;49.398;7.614;2023-08-07T16:40:59;23.00;92.30
50570;DHT22;36525;49.398;7.614;2023-08-07T16:43:26;22.30;92.50
50570;DHT22;36525;49.398;7.614;2023-08-07T16:45:53;21.80;93.50